createdAt,value
2023-01-06T02:52:53.968Z,99.99
2023-01-06T02:53:53.795Z,99.99
2023-01-06T02:54:53.784Z,99.99
2023-01-06T02:55:53.766Z,99.99
2023-01-06T02:56:53.755Z,99.99
2023-01-06T02:57:53.761Z,99.99
2023-01-06T02:58:53.735Z,99.99
2023-01-06T02:59:53.721Z,99.99
2023-01-06T03:00:53.735Z,99.99
2023-01-06T03:01:53.792Z,99.99
2023-01-06T03:02:53.706Z,99.99
2023-01-06T03:03:58.696Z,99.99
2023-01-06T03:04:53.724Z,99.99
2023-01-06T03:05:53.649Z,99.99
2023-01-06T03:06:53.640Z,99.99
2023-01-06T03:07:53.646Z,99.99
2023-01-06T03:08:53.733Z,99.99
2023-01-06T03:09:53.627Z,99.99
2023-01-06T03:10:53.594Z,99.99
2023-01-06T03:11:53.583Z,99.99
2023-01-06T03:12:53.573Z,99.99
2023-01-06T03:13:53.585Z,99.99
2023-01-06T03:14:58.578Z,99.99
2023-01-06T03:15:53.562Z,99.99
2023-01-06T03:16:53.574Z,99.99
2023-01-06T03:17:53.520Z,99.99
2023-01-06T03:18:53.517Z,99.99
2023-01-06T03:19:53.498Z,99.99
2023-01-06T03:20:53.482Z,99.99
2023-01-06T03:21:54.477Z,99.99
2023-01-06T03:22:53.502Z,99.99
2023-01-06T03:23:53.481Z,99.99
2023-01-06T03:24:53.572Z,99.99
2023-01-06T03:25:58.457Z,99.99
2023-01-06T03:26:53.414Z,99.99
2023-01-06T03:27:53.411Z,99.99
2023-01-06T03:28:53.422Z,99.99
2023-01-06T03:29:53.388Z,99.99
2023-01-06T03:30:53.383Z,99.99
2023-01-06T03:31:53.376Z,99.99
2023-01-06T03:32:53.349Z,99.99
2023-01-06T03:33:53.349Z,99.99
2023-01-06T03:34:53.326Z,99.99
2023-01-06T03:35:53.319Z,99.99
2023-01-06T03:36:58.325Z,99.99
2023-01-06T03:37:53.291Z,99.99
2023-01-06T03:38:53.315Z,99.99
2023-01-06T03:39:53.274Z,99.99
2023-01-06T03:40:53.375Z,99.99
2023-01-06T03:41:53.251Z,99.99
2023-01-06T03:42:53.242Z,99.99
2023-01-06T03:43:53.247Z,99.99
2023-01-06T03:44:53.220Z,99.99
2023-01-06T03:45:53.207Z,99.99
2023-01-06T03:46:54.262Z,99.99
2023-01-06T03:47:58.206Z,99.99
2023-01-06T03:48:53.184Z,99.99
2023-01-06T03:49:53.161Z,99.99
2023-01-06T03:50:53.149Z,99.99
2023-01-06T03:51:55.395Z,99.99
2023-01-06T03:52:53.127Z,99.99
2023-01-06T03:53:53.131Z,99.99
2023-01-06T03:54:53.101Z,99.99
2023-01-06T03:55:53.096Z,99.99
2023-01-06T03:56:53.193Z,99.99
2023-01-06T03:57:53.081Z,99.99
2023-01-06T03:58:58.093Z,99.99
2023-01-06T03:59:53.051Z,99.99
2023-01-06T04:00:53.058Z,99.99
2023-01-06T04:01:53.084Z,99.99
2023-01-06T04:02:54.018Z,99.99
2023-01-06T04:03:53.155Z,99.99
2023-01-06T04:04:52.992Z,99.99
2023-01-06T04:05:52.981Z,99.99
2023-01-06T04:06:52.970Z,99.99
2023-01-06T04:07:52.960Z,99.99
2023-01-06T04:08:52.965Z,99.99
2023-01-06T04:09:57.960Z,99.99
2023-01-06T04:10:52.928Z,99.99
2023-01-06T04:11:52.914Z,99.99
2023-01-06T04:12:53.032Z,99.99
2023-01-06T04:13:52.930Z,99.99
2023-01-06T04:14:52.887Z,99.99
2023-01-06T04:15:52.953Z,99.99
2023-01-06T04:16:52.863Z,99.99
2023-01-06T04:17:52.880Z,99.99
2023-01-06T04:18:52.855Z,99.99
2023-01-06T04:19:52.829Z,99.99
2023-01-06T04:20:57.840Z,99.99
2023-01-06T04:21:52.803Z,99.99
2023-01-06T04:22:52.790Z,99.99
2023-01-06T04:23:52.806Z,99.99
2023-01-06T04:24:52.776Z,99.99
2023-01-06T04:25:52.757Z,99.99
2023-01-06T04:26:52.747Z,99.99
2023-01-06T04:27:52.775Z,99.99
2023-01-06T04:28:52.873Z,99.99
2023-01-06T04:29:52.716Z,99.99
2023-01-06T04:30:52.699Z,99.99
2023-01-06T04:31:57.715Z,99.99
2023-01-06T04:32:52.678Z,99.99
2023-01-06T04:33:52.684Z,99.99
2023-01-06T04:34:52.673Z,99.99
2023-01-06T04:35:52.647Z,99.99
2023-01-06T04:36:52.639Z,99.99
2023-01-06T04:37:52.631Z,99.99
2023-01-06T04:38:53.618Z,99.99
2023-01-06T04:39:52.646Z,99.99
2023-01-06T04:40:52.590Z,99.99
2023-01-06T04:41:52.591Z,99.99
2023-01-06T04:42:57.588Z,99.99
2023-01-06T04:43:52.567Z,99.99
2023-01-06T04:44:52.666Z,99.99
2023-01-06T04:45:52.574Z,99.99
2023-01-06T04:46:52.531Z,99.99
2023-01-06T04:47:52.537Z,99.99
2023-01-06T04:48:53.528Z,99.99
2023-01-06T04:49:52.490Z,99.99
2023-01-06T04:50:52.479Z,99.99
2023-01-06T04:51:52.493Z,99.99
2023-01-06T04:52:52.457Z,99.99
2023-01-06T04:53:57.483Z,99.99
2023-01-06T04:54:52.450Z,99.99
2023-01-06T04:55:52.425Z,99.99
2023-01-06T04:56:52.418Z,99.99
2023-01-06T04:57:52.404Z,99.99
2023-01-06T04:58:52.389Z,99.99
2023-01-06T04:59:52.444Z,99.99
2023-01-06T05:00:52.566Z,99.99
2023-01-06T05:01:52.424Z,99.99
2023-01-06T05:02:52.360Z,99.99
2023-01-06T05:03:52.381Z,99.99
2023-01-06T05:04:57.365Z,99.99
2023-01-06T05:05:52.322Z,99.99
2023-01-06T05:06:52.299Z,99.99
2023-01-06T05:07:52.298Z,99.99
2023-01-06T05:08:52.286Z,99.99
2023-01-06T05:09:52.276Z,99.99
2023-01-06T05:10:52.257Z,99.99
2023-01-06T05:11:52.289Z,99.99
2023-01-06T05:12:52.232Z,99.99
2023-01-06T05:13:52.229Z,99.99
2023-01-06T05:14:52.221Z,99.99
2023-01-06T05:15:57.243Z,99.99
2023-01-06T05:16:52.202Z,99.99
2023-01-06T05:17:52.186Z,99.99
2023-01-06T05:18:52.181Z,99.99
2023-01-06T05:19:52.170Z,99.99
2023-01-06T05:20:52.151Z,99.99
2023-01-06T05:21:52.135Z,99.99
2023-01-06T05:22:52.126Z,99.99
2023-01-06T05:23:52.125Z,99.99
2023-01-06T05:24:52.100Z,99.99
2023-01-06T05:25:52.092Z,99.99
2023-01-06T05:26:57.100Z,99.99
2023-01-06T05:27:52.070Z,99.99
2023-01-06T05:28:52.065Z,99.99
2023-01-06T05:29:52.044Z,99.99
2023-01-06T05:30:52.042Z,99.99
2023-01-06T05:31:52.169Z,99.99
2023-01-06T05:32:52.012Z,99.99
2023-01-06T05:33:52.032Z,99.99
2023-01-06T05:34:51.989Z,99.99
2023-01-06T05:35:51.978Z,99.99
2023-01-06T05:36:52.968Z,99.99
2023-01-06T05:37:56.981Z,99.99
2023-01-06T05:38:51.956Z,99.99
2023-01-06T05:39:51.932Z,99.99
2023-01-06T05:40:51.920Z,99.99
2023-01-06T05:41:51.905Z,99.99
2023-01-06T05:42:51.923Z,99.99
2023-01-06T05:43:51.912Z,99.99
2023-01-06T05:44:51.882Z,99.99
2023-01-06T05:45:51.901Z,99.99
2023-01-06T05:46:51.857Z,99.99
2023-01-06T05:47:51.973Z,99.99
2023-01-06T05:48:56.866Z,99.99
2023-01-06T05:49:51.825Z,99.99
2023-01-06T05:50:51.811Z,99.99
2023-01-06T05:51:51.800Z,99.99
2023-01-06T05:52:51.794Z,99.99
2023-01-06T05:53:51.785Z,99.99
2023-01-06T05:54:51.771Z,99.99
2023-01-06T05:55:51.754Z,99.99
2023-01-06T05:56:51.750Z,99.99
2023-01-06T05:57:51.732Z,99.99
2023-01-06T05:58:51.737Z,99.99
2023-01-06T05:59:56.734Z,99.99
2023-01-06T06:00:51.706Z,99.99
2023-01-06T06:01:51.734Z,99.99
2023-01-06T06:02:51.681Z,99.99
2023-01-06T06:03:51.884Z,99.99
2023-01-06T06:04:51.654Z,99.99
2023-01-06T06:05:51.648Z,99.99
2023-01-06T06:06:51.647Z,99.99
2023-01-06T06:07:51.664Z,99.99
2023-01-06T06:08:51.631Z,99.99
2023-01-06T06:09:51.605Z,99.99
2023-01-06T06:10:56.610Z,99.99
2023-01-06T06:11:51.580Z,99.99
2023-01-06T06:12:51.575Z,99.99
2023-01-06T06:13:51.551Z,99.99
2023-01-06T06:14:51.557Z,99.99
2023-01-06T06:15:51.533Z,99.99
2023-01-06T06:16:51.616Z,99.99
2023-01-06T06:17:51.517Z,99.99
2023-01-06T06:18:51.501Z,99.99
2023-01-06T06:19:51.620Z,99.99
2023-01-06T06:20:51.479Z,99.99
2023-01-06T06:21:56.486Z,99.99
2023-01-06T06:22:51.456Z,99.99
2023-01-06T06:23:51.444Z,99.99
2023-01-06T06:24:51.443Z,99.99
2023-01-06T06:25:51.417Z,99.99
2023-01-06T06:26:51.417Z,99.99
2023-01-06T06:27:51.403Z,99.99
2023-01-06T06:28:51.407Z,99.99
2023-01-06T06:29:51.383Z,99.99
2023-01-06T06:30:51.367Z,99.99
2023-01-06T06:31:51.351Z,99.99
2023-01-06T06:32:56.367Z,99.99
2023-01-06T06:33:51.331Z,99.99
2023-01-06T06:34:51.333Z,99.99
2023-01-06T06:35:51.431Z,99.99
2023-01-06T06:36:51.297Z,99.99
2023-01-06T06:37:51.318Z,99.99
2023-01-06T06:38:51.302Z,99.99
2023-01-06T06:39:51.263Z,99.99
2023-01-06T06:40:51.254Z,99.99
2023-01-06T06:41:51.255Z,99.99
2023-01-06T06:42:52.281Z,99.99
2023-01-06T06:43:56.252Z,99.99
2023-01-06T06:44:52.291Z,99.99
2023-01-06T06:45:51.241Z,99.99
2023-01-06T06:46:51.208Z,99.99
2023-01-06T06:47:51.179Z,99.99
2023-01-06T06:48:51.215Z,99.99
2023-01-06T06:49:51.237Z,99.99
2023-01-06T06:50:51.152Z,99.99
2023-01-06T06:51:51.249Z,99.99
2023-01-06T06:52:51.127Z,99.99
2023-01-06T06:53:51.150Z,99.99
2023-01-06T06:54:56.117Z,99.99
2023-01-06T06:55:52.084Z,99.99
2023-01-06T06:56:51.078Z,99.99
2023-01-06T06:57:51.065Z,99.99
2023-01-06T06:58:51.076Z,99.99
2023-01-06T06:59:51.066Z,99.99
2023-01-06T07:00:51.030Z,99.99
2023-01-06T07:01:51.102Z,99.99
2023-01-06T07:02:51.013Z,99.99
2023-01-06T07:03:51.003Z,99.99
2023-01-06T07:04:51.096Z,99.99
2023-01-06T07:05:56.010Z,99.99
2023-01-06T07:06:50.963Z,99.99
2023-01-06T07:07:51.060Z,99.99
2023-01-06T07:08:50.941Z,99.99
2023-01-06T07:09:50.942Z,99.99
2023-01-06T07:10:51.914Z,99.99
2023-01-06T07:11:50.907Z,99.99
2023-01-06T07:12:50.892Z,99.99
2023-01-06T07:13:50.948Z,99.99
2023-01-06T07:14:50.883Z,99.99
2023-01-06T07:15:50.989Z,99.99
2023-01-06T07:16:55.876Z,99.99
2023-01-06T07:17:50.837Z,99.99
2023-01-06T07:18:50.826Z,99.99
2023-01-06T07:19:50.848Z,99.99
2023-01-06T07:20:50.834Z,99.99
2023-01-06T07:21:50.808Z,99.99
2023-01-06T07:22:50.811Z,99.99
2023-01-06T07:23:51.974Z,99.99
2023-01-06T07:24:50.780Z,99.15
2023-01-06T07:25:50.753Z,98.63
2023-01-06T07:26:50.738Z,97.61
2023-01-06T07:27:55.797Z,96.89
2023-01-06T07:28:50.768Z,97.20
2023-01-06T07:29:50.738Z,96.89
2023-01-06T07:30:50.752Z,96.28
2023-01-06T07:31:50.685Z,96.17
2023-01-06T07:32:50.681Z,95.97
2023-01-06T07:33:50.662Z,95.56
2023-01-06T07:34:50.659Z,95.05
2023-01-06T07:35:50.633Z,95.05
2023-01-06T07:36:50.624Z,94.74
2023-01-06T07:37:50.617Z,94.23
2023-01-06T07:38:55.741Z,93.51
2023-01-06T07:39:50.625Z,93.20
2023-01-06T07:40:50.587Z,93.51
2023-01-06T07:41:50.576Z,93.71
2023-01-06T07:42:50.558Z,93.41
2023-01-06T07:43:50.547Z,93.92
2023-01-06T07:44:50.545Z,93.41
2023-01-06T07:45:50.550Z,93.10
2023-01-06T07:46:50.518Z,92.79
2023-01-06T07:47:50.500Z,93.00
2023-01-06T07:48:50.492Z,90.95
2023-01-06T07:49:55.513Z,90.75
2023-01-06T07:50:50.477Z,91.36
2023-01-06T07:51:50.455Z,91.36
2023-01-06T07:52:50.450Z,91.56
2023-01-06T07:53:50.438Z,91.56
2023-01-06T07:54:50.589Z,90.64
2023-01-06T07:55:50.424Z,90.34
2023-01-06T07:56:50.404Z,89.62
2023-01-06T07:57:50.389Z,90.03
2023-01-06T07:58:50.386Z,89.42
2023-01-06T07:59:50.454Z,89.62
2023-01-06T08:00:55.383Z,88.18
2023-01-06T08:01:50.400Z,87.57
2023-01-06T08:02:50.400Z,87.73
2023-01-06T08:03:50.320Z,87.94
2023-01-06T08:04:50.330Z,88.24
2023-01-06T08:05:50.325Z,88.04
2023-01-06T08:06:50.287Z,87.63
2023-01-06T08:07:50.279Z,87.73
2023-01-06T08:08:50.264Z,87.94
2023-01-06T08:09:50.268Z,88.35
2023-01-06T08:10:50.383Z,88.24
2023-01-06T08:11:55.274Z,88.14
2023-01-06T08:12:50.248Z,88.86
2023-01-06T08:13:50.218Z,89.06
2023-01-06T08:14:50.333Z,88.04
2023-01-06T08:15:50.236Z,87.73
2023-01-06T08:16:50.205Z,87.22
2023-01-06T08:17:50.167Z,86.51
2023-01-06T08:18:50.155Z,87.02
2023-01-06T08:19:50.155Z,86.10
2023-01-06T08:20:50.157Z,86.30
2023-01-06T08:21:50.121Z,86.16
2023-01-06T08:22:55.151Z,86.16
2023-01-06T08:23:50.095Z,85.96
2023-01-06T08:24:50.118Z,85.85
2023-01-06T08:25:51.066Z,85.96
2023-01-06T08:26:51.155Z,85.85
2023-01-06T08:27:50.053Z,85.85
2023-01-06T08:28:50.040Z,86.26
2023-01-06T08:29:50.297Z,85.34
2023-01-06T08:30:50.121Z,85.55
2023-01-06T08:31:51.596Z,85.64
2023-01-06T08:32:50.021Z,85.85
2023-01-06T08:33:55.008Z,85.34
2023-01-06T08:34:50.073Z,85.44
2023-01-06T08:35:50.003Z,85.34
2023-01-06T08:36:49.955Z,85.64
2023-01-06T08:37:49.961Z,85.85
2023-01-06T08:38:49.939Z,85.14
2023-01-06T08:39:49.925Z,85.85
2023-01-06T08:40:49.946Z,85.55
2023-01-06T08:41:49.889Z,85.64
2023-01-06T08:42:50.056Z,86.05
2023-01-06T08:43:49.929Z,85.44
2023-01-06T08:44:54.898Z,85.64
2023-01-06T08:45:49.844Z,85.34
2023-01-06T08:46:49.843Z,85.75
2023-01-06T08:47:49.836Z,85.44
2023-01-06T08:48:49.815Z,85.34
2023-01-06T08:49:49.818Z,84.31
2023-01-06T08:50:49.816Z,85.24
2023-01-06T08:51:49.797Z,85.91
2023-01-06T08:52:49.769Z,85.75
2023-01-06T08:53:49.771Z,85.61
2023-01-06T08:54:49.748Z,85.91
2023-01-06T08:55:54.777Z,85.34
2023-01-06T08:56:49.734Z,85.44
2023-01-06T08:57:49.723Z,86.46
2023-01-06T08:58:49.827Z,86.26
2023-01-06T08:59:49.700Z,85.40
2023-01-06T09:00:49.690Z,85.61
2023-01-06T09:01:49.815Z,84.48
2023-01-06T09:02:49.664Z,84.89
2023-01-06T09:03:49.649Z,85.40
2023-01-06T09:04:49.692Z,84.79
2023-01-06T09:05:49.647Z,85.10
2023-01-06T09:06:56.655Z,85.40
2023-01-06T09:07:49.599Z,85.91
2023-01-06T09:08:49.594Z,86.12
2023-01-06T09:09:49.577Z,86.43
2023-01-06T09:10:49.600Z,86.63
2023-01-06T09:11:49.560Z,86.22
2023-01-06T09:12:49.559Z,86.32
2023-01-06T09:13:49.535Z,86.94
2023-01-06T09:14:49.654Z,86.83
2023-01-06T09:15:49.612Z,86.53
2023-01-06T09:16:49.521Z,86.63
2023-01-06T09:17:54.733Z,86.94
2023-01-06T09:18:49.586Z,87.04
2023-01-06T09:19:50.048Z,87.04
2023-01-06T09:20:49.458Z,87.35
2023-01-06T09:21:50.320Z,87.45
2023-01-06T09:22:49.442Z,87.76
2023-01-06T09:23:49.473Z,87.65
2023-01-06T09:24:49.434Z,87.76
2023-01-06T09:25:49.408Z,87.76
2023-01-06T09:26:49.389Z,88.37
2023-01-06T09:27:49.376Z,87.85
2023-01-06T09:28:54.391Z,87.76
2023-01-06T09:29:49.371Z,88.12
2023-01-06T09:30:49.513Z,88.12
2023-01-06T09:31:49.333Z,87.30
2023-01-06T09:32:49.357Z,87.45
2023-01-06T09:33:49.316Z,87.35
2023-01-06T09:34:49.319Z,87.61
2023-01-06T09:35:49.294Z,87.71
2023-01-06T09:36:49.280Z,87.92
2023-01-06T09:37:49.270Z,88.33
2023-01-06T09:38:49.275Z,87.71
2023-01-06T09:39:54.398Z,88.06
2023-01-06T09:40:49.232Z,87.30
2023-01-06T09:41:49.246Z,87.82
2023-01-06T09:42:49.225Z,87.35
2023-01-06T09:43:49.214Z,87.92
2023-01-06T09:44:49.233Z,87.92
2023-01-06T09:45:49.223Z,87.71
2023-01-06T09:46:49.282Z,87.71
2023-01-06T09:47:49.172Z,87.51
2023-01-06T09:48:49.145Z,87.61
2023-01-06T09:49:49.186Z,87.30
2023-01-06T09:50:54.233Z,87.71
2023-01-06T09:51:49.145Z,87.88
2023-01-06T09:52:49.107Z,87.20
2023-01-06T09:53:49.090Z,87.61
2023-01-06T09:54:49.075Z,87.98
2023-01-06T09:55:49.090Z,86.96
2023-01-06T09:56:49.060Z,87.06
2023-01-06T09:57:49.076Z,86.76
2023-01-06T09:58:49.054Z,86.44
2023-01-06T09:59:49.022Z,86.65
2023-01-06T10:00:49.020Z,86.76
2023-01-06T10:01:54.322Z,86.55
2023-01-06T10:02:49.007Z,86.55
2023-01-06T10:03:49.050Z,86.85
2023-01-06T10:04:48.991Z,86.65
2023-01-06T10:05:49.030Z,86.55
2023-01-06T10:06:48.941Z,86.71
2023-01-06T10:07:48.973Z,85.89
2023-01-06T10:08:48.925Z,85.89
2023-01-06T10:09:48.910Z,85.49
2023-01-06T10:10:48.938Z,85.18
2023-01-06T10:11:48.886Z,85.45
2023-01-06T10:12:53.897Z,84.98
2023-01-06T10:13:48.875Z,84.83
2023-01-06T10:14:48.856Z,85.24
2023-01-06T10:15:48.963Z,85.04
2023-01-06T10:16:48.840Z,84.16
2023-01-06T10:17:48.955Z,84.33
2023-01-06T10:18:48.815Z,84.01
2023-01-06T10:19:48.797Z,84.98
2023-01-06T10:20:50.709Z,83.81
2023-01-06T10:21:48.773Z,83.65
2023-01-06T10:22:48.817Z,84.16
2023-01-06T10:23:53.773Z,84.16
2023-01-06T10:24:48.742Z,83.44
2023-01-06T10:25:48.745Z,83.71
2023-01-06T10:26:48.716Z,83.10
2023-01-06T10:27:48.711Z,83.34
2023-01-06T10:28:48.694Z,83.65
2023-01-06T10:29:48.685Z,83.65
2023-01-06T10:30:48.690Z,83.85
2023-01-06T10:31:48.705Z,82.42
2023-01-06T10:32:48.656Z,82.93
2023-01-06T10:33:48.774Z,83.44
2023-01-06T10:34:53.657Z,83.00
2023-01-06T10:35:48.653Z,82.73
2023-01-06T10:36:48.622Z,82.42
2023-01-06T10:37:48.605Z,82.63
2023-01-06T10:38:48.589Z,83.14
2023-01-06T10:39:48.578Z,82.32
2023-01-06T10:40:48.559Z,82.42
2023-01-06T10:41:48.569Z,82.42
2023-01-06T10:42:48.570Z,82.83
2023-01-06T10:43:48.544Z,83.75
2023-01-06T10:44:48.534Z,82.63
2023-01-06T10:45:54.552Z,82.83
2023-01-06T10:46:48.551Z,83.54
2023-01-06T10:47:48.498Z,83.44
2023-01-06T10:48:48.472Z,83.75
2023-01-06T10:49:48.602Z,82.93
2023-01-06T10:50:48.473Z,82.42
2023-01-06T10:51:48.450Z,82.93
2023-01-06T10:52:48.447Z,82.53
2023-01-06T10:53:48.415Z,82.53
2023-01-06T10:54:48.410Z,82.63
2023-01-06T10:55:48.459Z,82.53
2023-01-06T10:56:53.420Z,82.79
2023-01-06T10:57:48.369Z,82.79
2023-01-06T10:58:48.379Z,83.34
2023-01-06T10:59:48.361Z,83.40
2023-01-06T11:00:48.435Z,82.79
2023-01-06T11:01:48.448Z,82.49
2023-01-06T11:02:48.401Z,83.81
2023-01-06T11:03:48.304Z,83.51
2023-01-06T11:04:48.296Z,82.79
2023-01-06T11:05:48.406Z,82.49
2023-01-06T11:06:48.317Z,82.79
2023-01-06T11:07:53.356Z,82.49
2023-01-06T11:08:48.264Z,82.39
2023-01-06T11:09:48.235Z,82.18
2023-01-06T11:10:48.225Z,81.05
2023-01-06T11:11:48.234Z,81.81
2023-01-06T11:12:48.203Z,81.67
2023-01-06T11:13:48.198Z,81.87
2023-01-06T11:14:48.427Z,81.37
2023-01-06T11:15:48.185Z,80.89
2023-01-06T11:16:48.212Z,80.75
2023-01-06T11:17:48.147Z,80.85
2023-01-06T11:18:53.156Z,80.85
2023-01-06T11:19:48.129Z,80.44
2023-01-06T11:20:48.113Z,80.55
2023-01-06T11:21:48.228Z,80.85
2023-01-06T11:22:48.103Z,80.18
2023-01-06T11:23:48.128Z,80.07
2023-01-06T11:24:48.170Z,79.97
2023-01-06T11:25:48.063Z,79.05
2023-01-06T11:26:48.052Z,79.57
2023-01-06T11:27:48.052Z,79.57
2023-01-06T11:28:48.032Z,79.16
2023-01-06T11:29:53.039Z,79.16
2023-01-06T11:30:48.006Z,79.05
2023-01-06T11:31:48.104Z,79.63
2023-01-06T11:32:47.995Z,79.63
2023-01-06T11:33:47.972Z,80.07
2023-01-06T11:34:47.965Z,79.97
2023-01-06T11:35:47.947Z,80.18
2023-01-06T11:36:47.936Z,79.05
2023-01-06T11:37:48.065Z,79.66
2023-01-06T11:38:47.932Z,79.77
2023-01-06T11:39:51.997Z,79.12
2023-01-06T11:40:53.986Z,79.16
2023-01-06T11:41:47.892Z,79.25
2023-01-06T11:42:47.918Z,79.77
2023-01-06T11:43:50.386Z,79.36
2023-01-06T11:44:47.879Z,79.87
2023-01-06T11:45:47.910Z,79.73
2023-01-06T11:46:47.891Z,79.46
2023-01-06T11:47:47.818Z,79.97
2023-01-06T11:48:47.803Z,80.07
2023-01-06T11:49:47.803Z,79.16
2023-01-06T11:50:47.777Z,79.87
2023-01-06T11:51:52.809Z,78.95
2023-01-06T11:52:47.787Z,79.66
2023-01-06T11:53:47.872Z,79.36
2023-01-06T11:54:47.735Z,79.66
2023-01-06T11:55:47.737Z,79.25
2023-01-06T11:56:47.708Z,79.57
2023-01-06T11:57:47.713Z,79.36
2023-01-06T11:58:47.700Z,79.36
2023-01-06T11:59:47.679Z,79.57
2023-01-06T12:00:47.671Z,79.05
2023-01-06T12:01:47.793Z,79.16
2023-01-06T12:02:52.820Z,78.61
2023-01-06T12:03:47.632Z,78.71
2023-01-06T12:04:47.641Z,79.02
2023-01-06T12:05:47.611Z,78.13
2023-01-06T12:06:47.606Z,77.69
2023-01-06T12:07:47.622Z,78.20
2023-01-06T12:08:47.601Z,78.41
2023-01-06T12:09:47.676Z,77.59
2023-01-06T12:10:47.568Z,78.00
2023-01-06T12:11:47.551Z,77.38
2023-01-06T12:12:47.560Z,77.18
2023-01-06T12:14:08.784Z,77.59
2023-01-06T12:14:48.508Z,77.69
2023-01-06T12:15:47.503Z,77.18
2023-01-06T12:16:47.633Z,77.08
2023-01-06T12:17:47.729Z,76.87
2023-01-06T12:18:47.473Z,77.18
2023-01-06T12:19:47.473Z,77.38
2023-01-06T12:20:47.478Z,77.08
2023-01-06T12:21:47.440Z,77.18
2023-01-06T12:22:47.430Z,77.18
2023-01-06T12:23:47.438Z,76.97
2023-01-06T12:24:53.531Z,76.87
2023-01-06T12:25:47.399Z,77.69
2023-01-06T12:26:47.374Z,76.97
2023-01-06T12:27:47.372Z,76.97
2023-01-06T12:28:47.352Z,76.97
2023-01-06T12:29:47.341Z,76.97
2023-01-06T12:30:47.479Z,76.87
2023-01-06T12:31:47.368Z,76.97
2023-01-06T12:32:47.327Z,76.87
2023-01-06T12:33:47.297Z,77.08
2023-01-06T12:34:47.288Z,76.87
2023-01-06T12:35:52.298Z,76.87
2023-01-06T12:36:47.261Z,76.97
2023-01-06T12:37:47.273Z,77.38
2023-01-06T12:38:47.253Z,76.97
2023-01-06T12:39:47.232Z,77.18
2023-01-06T12:40:47.344Z,77.18
2023-01-06T12:41:47.211Z,76.97
2023-01-06T12:42:47.205Z,76.97
2023-01-06T12:43:47.191Z,76.97
2023-01-06T12:44:47.178Z,76.87
2023-01-06T12:45:56.627Z,76.67
2023-01-06T12:46:53.172Z,77.18
2023-01-06T12:47:48.151Z,76.87
2023-01-06T12:48:47.124Z,77.08
2023-01-06T12:49:47.149Z,76.97
2023-01-06T12:50:47.104Z,76.87
2023-01-06T12:51:47.096Z,77.38
2023-01-06T12:52:47.103Z,76.97
2023-01-06T12:53:47.074Z,76.97
2023-01-06T12:54:47.074Z,77.38
2023-01-06T12:55:47.064Z,76.87
2023-01-06T12:56:47.160Z,77.38
2023-01-06T12:57:52.064Z,78.20
2023-01-06T12:58:47.016Z,77.79
2023-01-06T12:59:47.002Z,77.69
2023-01-06T13:00:46.992Z,77.69
2023-01-06T13:01:47.152Z,76.67
2023-01-06T13:02:46.984Z,77.79
2023-01-06T13:03:47.142Z,77.59
2023-01-06T13:04:46.960Z,77.38
2023-01-06T13:05:46.939Z,77.08
2023-01-06T13:06:46.928Z,77.69
2023-01-06T13:07:46.959Z,77.59
2023-01-06T13:08:51.928Z,77.69
2023-01-06T13:09:46.900Z,77.59
2023-01-06T13:10:46.896Z,78.09
2023-01-06T13:11:46.870Z,77.69
2023-01-06T13:12:46.983Z,77.48
2023-01-06T13:13:46.860Z,77.59
2023-01-06T13:14:46.849Z,77.79
2023-01-06T13:15:46.832Z,77.79
2023-01-06T13:16:46.886Z,77.38
2023-01-06T13:17:46.812Z,76.87
2023-01-06T13:18:46.805Z,77.18
2023-01-06T13:19:51.852Z,77.28
2023-01-06T13:20:46.773Z,77.69
2023-01-06T13:21:46.761Z,77.89
2023-01-06T13:22:46.755Z,77.28
2023-01-06T13:23:46.750Z,77.18
2023-01-06T13:24:46.725Z,77.59
2023-01-06T13:25:46.722Z,77.08
2023-01-06T13:26:46.717Z,76.77
2023-01-06T13:27:46.714Z,77.38
2023-01-06T13:28:46.826Z,77.08
2023-01-06T13:29:46.677Z,77.18
2023-01-06T13:30:51.878Z,77.28
2023-01-06T13:31:46.650Z,77.18
2023-01-06T13:32:46.640Z,76.77
2023-01-06T13:33:46.649Z,77.08
2023-01-06T13:34:46.622Z,77.18
2023-01-06T13:35:46.603Z,76.97
2023-01-06T13:36:46.588Z,76.97
2023-01-06T13:37:47.596Z,77.38
2023-01-06T13:38:46.577Z,77.08
2023-01-06T13:39:46.566Z,77.55
2023-01-06T13:40:46.547Z,77.28
2023-01-06T13:41:51.557Z,77.38
2023-01-06T13:42:46.521Z,77.08
2023-01-06T13:43:46.516Z,77.18
2023-01-06T13:44:46.626Z,77.28
2023-01-06T13:45:46.588Z,77.59
2023-01-06T13:46:46.481Z,77.59
2023-01-06T13:47:46.472Z,77.08
2023-01-06T13:48:46.537Z,77.59
2023-01-06T13:49:46.444Z,77.59
2023-01-06T13:50:46.436Z,77.25
2023-01-06T13:51:46.426Z,76.87
2023-01-06T13:52:51.439Z,76.97
2023-01-06T13:53:46.419Z,77.18
2023-01-06T13:54:46.429Z,76.97
2023-01-06T13:55:46.385Z,76.87
2023-01-06T13:56:46.369Z,77.04
2023-01-06T13:57:46.366Z,76.97
2023-01-06T13:58:46.358Z,77.25
2023-01-06T13:59:46.346Z,77.38
2023-01-06T14:00:47.427Z,76.84
2023-01-06T14:01:46.502Z,77.28
2023-01-06T14:02:46.401Z,77.25
2023-01-06T14:03:51.349Z,77.34
2023-01-06T14:04:46.285Z,77.45
2023-01-06T14:05:46.298Z,77.28
2023-01-06T14:06:46.253Z,77.38
2023-01-06T14:07:46.240Z,77.59
2023-01-06T14:08:46.252Z,77.48
2023-01-06T14:09:46.235Z,77.59
2023-01-06T14:10:46.218Z,77.75
2023-01-06T14:11:46.207Z,77.59
2023-01-06T14:12:46.187Z,77.89
2023-01-06T14:13:46.236Z,77.75
2023-01-06T14:14:51.190Z,78.30
2023-01-06T14:15:46.204Z,78.30
2023-01-06T14:16:46.287Z,78.09
2023-01-06T14:17:46.131Z,77.69
2023-01-06T14:18:46.130Z,77.59
2023-01-06T14:19:46.107Z,78.09
2023-01-06T14:20:46.106Z,78.09
2023-01-06T14:21:46.089Z,78.20
2023-01-06T14:22:46.076Z,77.89
2023-01-06T14:23:46.124Z,78.41
2023-01-06T14:24:46.065Z,78.30
2023-01-06T14:25:51.064Z,78.50
2023-01-06T14:26:46.049Z,78.09
2023-01-06T14:27:46.039Z,78.71
2023-01-06T14:28:46.007Z,78.61
2023-01-06T14:29:46.017Z,78.61
2023-01-06T14:30:46.030Z,79.12
2023-01-06T14:31:45.981Z,78.61
2023-01-06T14:32:46.083Z,78.81
2023-01-06T14:33:45.966Z,78.23
2023-01-06T14:34:45.968Z,78.71
2023-01-06T14:35:45.932Z,78.64
2023-01-06T14:36:50.940Z,79.02
2023-01-06T14:37:45.903Z,79.02
2023-01-06T14:38:45.902Z,79.46
2023-01-06T14:39:45.914Z,79.12
2023-01-06T14:40:45.922Z,79.77
2023-01-06T14:41:45.913Z,79.36
2023-01-06T14:42:45.857Z,78.95
2023-01-06T14:43:45.840Z,79.36
2023-01-06T14:44:45.848Z,79.36
2023-01-06T14:45:45.819Z,79.25
2023-01-06T14:46:45.808Z,79.87
2023-01-06T14:47:50.995Z,79.46
2023-01-06T14:48:45.784Z,79.97
2023-01-06T14:49:45.780Z,79.97
2023-01-06T14:50:47.362Z,80.07
2023-01-06T14:51:45.747Z,79.16
2023-01-06T14:52:45.739Z,80.28
2023-01-06T14:53:45.733Z,80.07
2023-01-06T14:54:45.727Z,80.07
2023-01-06T14:55:45.719Z,79.91
2023-01-06T14:56:45.693Z,80.28
2023-01-06T14:57:45.685Z,80.32
2023-01-06T14:58:50.706Z,80.52
2023-01-06T14:59:45.673Z,80.42
2023-01-06T15:00:45.651Z,80.73
2023-01-06T15:01:45.894Z,81.03
2023-01-06T15:02:45.768Z,80.93
2023-01-06T15:03:45.761Z,80.83
2023-01-06T15:04:45.692Z,80.62
2023-01-06T15:05:45.604Z,80.62
2023-01-06T15:06:45.588Z,80.42
2023-01-06T15:07:45.568Z,81.44
2023-01-06T15:08:45.571Z,81.34
2023-01-06T15:09:50.580Z,81.34
2023-01-06T15:10:45.543Z,81.54
2023-01-06T15:11:45.524Z,80.87
2023-01-06T15:12:56.017Z,81.38
2023-01-06T15:13:46.505Z,81.85
2023-01-06T15:14:45.498Z,81.38
2023-01-06T15:15:45.625Z,80.87
2023-01-06T15:16:45.470Z,80.62
2023-01-06T15:17:45.461Z,81.03
2023-01-06T15:18:45.455Z,80.15
2023-01-06T15:19:45.573Z,81.07
2023-01-06T15:20:50.446Z,80.21
2023-01-06T15:21:45.431Z,79.91
2023-01-06T15:22:45.404Z,79.91
2023-01-06T15:23:45.413Z,80.11
2023-01-06T15:24:45.406Z,80.83
2023-01-06T15:25:45.369Z,80.62
2023-01-06T15:26:45.380Z,80.46
2023-01-06T15:27:47.025Z,80.76
2023-01-06T15:28:45.335Z,81.74
2023-01-06T15:29:45.344Z,81.48
2023-01-06T15:30:45.378Z,81.88
2023-01-06T15:31:51.356Z,82.29
2023-01-06T15:32:45.291Z,82.20
2023-01-06T15:33:45.284Z,82.29
2023-01-06T15:34:47.119Z,82.43
2023-01-06T15:35:45.347Z,82.20
2023-01-06T15:36:45.293Z,82.29
2023-01-06T15:37:45.242Z,82.09
2023-01-06T15:38:45.227Z,82.60
2023-01-06T15:39:45.231Z,82.70
2023-01-06T15:40:45.205Z,82.75
2023-01-06T15:41:45.192Z,83.25
2023-01-06T15:42:50.206Z,83.15
2023-01-06T15:43:45.170Z,83.62
2023-01-06T15:44:45.167Z,83.01